Time;durP1;ratioP1;P1;durP2;ratioP2;P2;SDS_P1;SDS_P2;PMS_P1;PMS_P2;Temp;Humidity;BMP_temperature;BMP_pressure;BME280_temperature;BME280_humidity;BME280_pressure;Samples;Min_cycle;Max_cycle;Signal;HPM_P1;HPM_P2
2021/04/09 00:01:45;;;;;;;5.97;2.65;;;5.20;61.60;;;;;;3574184;40;20475;-70
2021/04/09 00:04:13;;;;;;;3.88;3.08;;;5.10;61.30;;;;;;3577381;40;20043;-65
2021/04/09 00:06:38;;;;;;;7.00;3.08;;;5.10;61.40;;;;;;3574193;40;20495;-64
2021/04/09 00:09:09;;;;;;;4.25;2.88;;;5.10;61.20;;;;;;3570660;40;20083;-65
2021/04/09 00:11:36;;;;;;;6.85;2.92;;;5.20;61.40;;;;;;3574240;40;20072;-64
2021/04/09 00:14:04;;;;;;;7.95;3.40;;;5.10;61.30;;;;;;3573763;40;20425;-65
2021/04/09 00:16:29;;;;;;;4.43;2.90;;;5.00;61.10;;;;;;3572338;40;20037;-65
2021/04/09 00:18:55;;;;;;;7.75;2.55;;;5.00;61.40;;;;;;3572556;40;20043;-65
2021/04/09 00:21:21;;;;;;;10.60;3.20;;;5.00;61.60;;;;;;3572208;40;20045;-65
2021/04/09 00:23:47;;;;;;;6.63;2.75;;;4.90;61.40;;;;;;3572631;40;20060;-65
2021/04/09 00:26:13;;;;;;;3.28;2.38;;;5.00;61.20;;;;;;3573250;40;20123;-65
2021/04/09 00:28:38;;;;;;;6.28;2.85;;;5.00;61.30;;;;;;3572334;40;20040;-65
2021/04/09 00:31:05;;;;;;;7.28;3.20;;;5.00;61.10;;;;;;3573971;40;20786;-65
2021/04/09 00:33:31;;;;;;;7.05;3.25;;;5.00;60.00;;;;;;3572131;40;20264;-65
2021/04/09 00:35:56;;;;;;;4.60;2.50;;;5.00;60.90;;;;;;3573661;40;20063;-65
2021/04/09 00:38:22;;;;;;;6.95;3.42;;;5.00;60.90;;;;;;3572332;40;20810;-65
2021/04/09 00:40:48;;;;;;;5.47;2.90;;;5.00;60.80;;;;;;3573110;40;20842;-65
2021/04/09 00:43:13;;;;;;;10.77;5.28;;;5.00;60.50;;;;;;3572932;40;20025;-65
2021/04/09 00:45:39;;;;;;;4.18;3.22;;;5.00;60.40;;;;;;3573274;40;20041;-65
2021/04/09 00:48:06;;;;;;;5.93;3.10;;;5.00;60.60;;;;;;3573927;40;20029;-65
2021/04/09 00:50:33;;;;;;;9.23;2.85;;;5.00;61.20;;;;;;3571831;40;20057;-69
2021/04/09 00:53:02;;;;;;;8.90;2.72;;;5.00;60.80;;;;;;3574324;40;20086;-70
2021/04/09 00:55:28;;;;;;;11.07;3.72;;;5.00;60.80;;;;;;3573253;40;20036;-70
2021/04/09 00:57:57;;;;;;;7.00;3.42;;;5.00;60.80;;;;;;3573934;40;20028;-70
2021/04/09 01:00:24;;;;;;;12.50;4.10;;;5.00;60.60;;;;;;3572669;40;20051;-69
2021/04/09 01:02:50;;;;;;;6.68;3.75;;;4.90;60.90;;;;;;3575187;40;20033;-70
2021/04/09 01:05:17;;;;;;;6.45;4.00;;;4.90;60.90;;;;;;3574596;40;20044;-69
2021/04/09 01:07:44;;;;;;;9.57;4.22;;;4.90;60.80;;;;;;3572925;40;20021;-69
2021/04/09 01:10:12;;;;;;;9.63;4.60;;;4.80;61.30;;;;;;3574648;40;20032;-69
2021/04/09 01:12:37;;;;;;;7.68;4.18;;;4.70;61.90;;;;;;3570386;40;20033;-69
2021/04/09 01:15:05;;;;;;;9.32;4.40;;;4.70;61.90;;;;;;3573886;40;20085;-70
2021/04/09 01:17:58;;;;;;;11.52;4.50;;;4.60;62.10;;;;;;3571908;40;20551;-69
2021/04/09 01:20:57;;;;;;;7.32;4.57;;;4.50;62.70;;;;;;3573925;40;20082;-70
2021/04/09 01:23:46;;;;;;;9.85;4.97;;;4.60;62.90;;;;;;3572747;40;20413;-70
2021/04/09 01:26:39;;;;;;;6.90;4.15;;;4.50;62.30;;;;;;3572488;40;20370;-69
2021/04/09 01:29:35;;;;;;;12.57;4.65;;;4.50;62.20;;;;;;3573744;40;20075;-69
2021/04/09 01:32:04;;;;;;;6.70;4.30;;;4.50;62.10;;;;;;3572047;40;20672;-70
2021/04/09 01:34:37;;;;;;;8.30;3.83;;;4.60;61.80;;;;;;3571642;40;20037;-70
2021/04/09 01:37:31;;;;;;;8.07;4.40;;;4.60;61.80;;;;;;3572087;40;20719;-70
2021/04/09 01:40:03;;;;;;;8.65;4.05;;;4.60;61.90;;;;;;3571811;40;20045;-69
2021/04/09 01:42:31;;;;;;;8.32;3.95;;;4.60;61.80;;;;;;3572641;40;20037;-69
2021/04/09 01:44:59;;;;;;;7.43;4.13;;;4.60;61.60;;;;;;3573768;40;20037;-69
2021/04/09 01:47:26;;;;;;;9.85;4.13;;;4.40;62.10;;;;;;3573409;40;20380;-70
2021/04/09 01:49:55;;;;;;;6.75;3.72;;;4.40;62.30;;;;;;3572020;40;20028;-69
2021/04/09 01:52:22;;;;;;;8.07;3.88;;;4.30;62.30;;;;;;3570679;40;20835;-69
2021/04/09 01:54:51;;;;;;;9.85;3.75;;;4.20;62.70;;;;;;3572612;40;20051;-69
2021/04/09 01:57:20;;;;;;;8.68;3.92;;;4.10;63.20;;;;;;3572137;40;20037;-69
2021/04/09 01:59:48;;;;;;;8.75;3.85;;;4.20;63.40;;;;;;3571065;40;20033;-64
2021/04/09 02:02:16;;;;;;;8.02;4.18;;;4.20;62.90;;;;;;3571735;40;20037;-64
2021/04/09 02:04:43;;;;;;;9.85;3.78;;;4.30;62.10;;;;;;3571654;40;20035;-65
2021/04/09 02:07:10;;;;;;;7.88;3.33;;;4.20;63.20;;;;;;3571996;40;20055;-64
2021/04/09 02:09:37;;;;;;;6.13;3.30;;;4.20;63.00;;;;;;3571985;40;20060;-65
2021/04/09 02:12:03;;;;;;;6.60;3.92;;;4.20;63.20;;;;;;3571978;40;20123;-67
2021/04/09 02:14:31;;;;;;;7.88;3.53;;;4.20;63.10;;;;;;3572246;40;20634;-65
2021/04/09 02:16:58;;;;;;;7.35;3.85;;;4.30;63.20;;;;;;3571689;40;20056;-65
2021/04/09 02:19:25;;;;;;;11.57;3.90;;;4.30;62.90;;;;;;3572574;40;20013;-64
2021/04/09 02:21:51;;;;;;;10.88;3.45;;;4.30;62.70;;;;;;3571618;40;20528;-64
2021/04/09 02:24:17;;;;;;;8.35;3.95;;;4.40;62.70;;;;;;3572401;40;20031;-64
2021/04/09 02:26:43;;;;;;;7.88;3.65;;;4.30;63.10;;;;;;3571953;40;20137;-65
2021/04/09 02:29:09;;;;;;;8.32;3.40;;;4.20;63.00;;;;;;3571954;40;20078;-65
2021/04/09 02:31:36;;;;;;;6.70;3.58;;;4.20;63.70;;;;;;3573524;40;20040;-65
2021/04/09 02:34:01;;;;;;;6.43;3.65;;;4.20;63.40;;;;;;3572225;40;20096;-65
2021/04/09 02:36:30;;;;;;;5.63;3.08;;;4.20;63.80;;;;;;3574057;40;20043;-65
2021/04/09 02:39:03;;;;;;;6.25;2.97;;;4.10;63.80;;;;;;3573992;40;20808;-65
2021/04/09 02:41:35;;;;;;;5.78;3.00;;;4.20;63.90;;;;;;3572486;40;20173;-65
2021/04/09 02:44:02;;;;;;;7.40;3.40;;;4.20;63.30;;;;;;3572388;40;20039;-65
2021/04/09 02:46:33;;;;;;;5.40;3.40;;;4.20;63.20;;;;;;3571710;40;20137;-64
2021/04/09 02:49:06;;;;;;;6.53;3.78;;;4.20;63.10;;;;;;3572048;40;20504;-64
2021/04/09 02:51:34;;;;;;;9.30;3.45;;;4.20;62.80;;;;;;3571975;40;20582;-65
2021/04/09 02:54:01;;;;;;;6.65;3.55;;;4.10;62.80;;;;;;3571742;40;20293;-65
2021/04/09 02:56:29;;;;;;;5.80;3.92;;;4.10;63.20;;;;;;3572411;40;20790;-65
2021/04/09 02:58:57;;;;;;;7.10;3.50;;;4.10;62.90;;;;;;3570761;40;20032;-65
2021/04/09 03:01:24;;;;;;;9.15;3.38;;;4.10;63.30;;;;;;3570881;40;20032;-65
2021/04/09 03:03:51;;;;;;;12.15;3.95;;;4.10;63.10;;;;;;3571416;40;20033;-65
2021/04/09 03:06:17;;;;;;;5.95;3.60;;;4.00;63.70;;;;;;3571562;40;20102;-65
2021/04/09 03:08:44;;;;;;;6.60;3.95;;;4.00;63.70;;;;;;3569791;40;20025;-65
2021/04/09 03:11:10;;;;;;;7.22;3.17;;;4.00;63.70;;;;;;3572573;40;20033;-65
2021/04/09 03:13:36;;;;;;;10.05;4.25;;;4.00;63.40;;;;;;3572020;40;20036;-64
2021/04/09 03:16:03;;;;;;;6.05;3.42;;;4.10;63.60;;;;;;3573805;40;20036;-65
2021/04/09 03:18:35;;;;;;;5.95;3.22;;;4.10;63.40;;;;;;3574590;40;20028;-65
2021/04/09 03:21:01;;;;;;;9.18;2.92;;;4.00;63.80;;;;;;3572309;40;20040;-65
2021/04/09 03:23:27;;;;;;;9.07;3.95;;;4.00;63.60;;;;;;3573482;40;20041;-65
2021/04/09 03:25:52;;;;;;;8.13;3.50;;;4.00;63.20;;;;;;3572356;40;20056;-65
2021/04/09 03:28:18;;;;;;;6.45;3.85;;;4.10;63.20;;;;;;3574597;40;20044;-65
2021/04/09 03:30:49;;;;;;;6.97;3.40;;;4.00;63.40;;;;;;3575387;40;20028;-65
2021/04/09 03:33:16;;;;;;;8.18;3.53;;;4.00;63.10;;;;;;3575714;40;20126;-66
2021/04/09 03:35:42;;;;;;;4.80;3.25;;;4.10;63.40;;;;;;3574400;40;20047;-65
2021/04/09 03:38:08;;;;;;;7.53;3.97;;;4.10;62.80;;;;;;3575960;40;20329;-65
2021/04/09 03:40:34;;;;;;;8.05;3.90;;;4.10;62.90;;;;;;3574194;40;20130;-65
2021/04/09 03:42:59;;;;;;;8.13;3.58;;;4.10;62.50;;;;;;3576288;40;20056;-65
2021/04/09 03:45:25;;;;;;;7.28;3.50;;;4.00;63.40;;;;;;3572103;40;20411;-64
2021/04/09 03:47:51;;;;;;;7.45;3.50;;;4.00;63.10;;;;;;3573017;40;20115;-65
2021/04/09 03:50:17;;;;;;;7.60;3.72;;;3.90;63.60;;;;;;3575451;40;20041;-65
2021/04/09 03:52:42;;;;;;;8.20;3.47;;;3.80;63.90;;;;;;3577415;40;20154;-65
2021/04/09 03:55:11;;;;;;;9.65;3.17;;;3.80;64.40;;;;;;3574136;40;20135;-65
2021/04/09 03:57:37;;;;;;;8.85;4.05;;;3.70;64.30;;;;;;3575414;40;20174;-65
2021/04/09 04:00:05;;;;;;;5.93;3.45;;;3.70;64.20;;;;;;3576574;40;20036;-64
2021/04/09 04:02:32;;;;;;;7.32;3.80;;;3.70;64.10;;;;;;3573801;40;20033;-64
2021/04/09 04:04:58;;;;;;;7.97;3.30;;;3.80;64.00;;;;;;3573757;40;20104;-64
2021/04/09 04:07:24;;;;;;;7.43;3.80;;;3.80;63.70;;;;;;3572687;40;20704;-64
2021/04/09 04:09:50;;;;;;;7.07;3.53;;;3.80;63.80;;;;;;3575234;40;20518;-64
2021/04/09 04:12:16;;;;;;;5.80;3.35;;;3.90;63.50;;;;;;3572955;40;20104;-64
2021/04/09 04:14:41;;;;;;;8.05;4.13;;;3.90;63.50;;;;;;3577004;40;20041;-65
2021/04/09 04:17:07;;;;;;;14.25;4.38;;;3.90;63.80;;;;;;3575749;40;20040;-66
2021/04/09 04:19:33;;;;;;;11.98;4.18;;;3.80;63.50;;;;;;3575109;40;20039;-64
2021/04/09 04:21:58;;;;;;;9.13;3.72;;;3.80;63.80;;;;;;3571933;40;20295;-65
2021/04/09 04:24:24;;;;;;;7.93;4.10;;;3.80;63.70;;;;;;3574305;40;20037;-65
2021/04/09 04:26:50;;;;;;;8.55;3.85;;;3.80;64.00;;;;;;3570938;40;20838;-65
2021/04/09 04:29:15;;;;;;;8.05;4.15;;;3.80;63.80;;;;;;3575370;40;20079;-64
2021/04/09 04:31:41;;;;;;;8.95;4.25;;;3.80;64.40;;;;;;3574623;40;20070;-65
2021/04/09 04:34:07;;;;;;;6.18;4.00;;;3.70;64.20;;;;;;3576487;40;20028;-70
2021/04/09 04:36:33;;;;;;;9.60;3.95;;;3.70;64.60;;;;;;3574494;40;20846;-70
2021/04/09 04:38:59;;;;;;;10.30;4.95;;;3.80;64.30;;;;;;3576360;40;20085;-70
2021/04/09 04:41:25;;;;;;;8.73;4.10;;;3.70;64.00;;;;;;3575455;40;20029;-70
2021/04/09 04:43:51;;;;;;;8.05;4.20;;;3.70;64.90;;;;;;3575902;40;20024;-70
2021/04/09 04:46:16;;;;;;;6.10;4.30;;;3.70;64.70;;;;;;3576404;40;20029;-70
2021/04/09 04:48:42;;;;;;;10.60;4.85;;;3.70;64.40;;;;;;3578214;40;20294;-69
2021/04/09 04:51:08;;;;;;;8.27;5.30;;;3.80;65.20;;;;;;3573965;40;20041;-70
2021/04/09 04:53:34;;;;;;;11.57;4.47;;;3.80;64.60;;;;;;3575259;40;20832;-70
2021/04/09 04:55:59;;;;;;;8.07;4.65;;;3.80;65.10;;;;;;3576607;40;20279;-70
2021/04/09 04:58:25;;;;;;;11.20;4.43;;;3.90;64.20;;;;;;3574435;40;20105;-69
2021/04/09 05:00:51;;;;;;;9.60;4.45;;;3.90;64.20;;;;;;3574370;40;20059;-70
2021/04/09 05:03:17;;;;;;;8.80;4.55;;;4.00;63.50;;;;;;3574950;40;20114;-69
2021/04/09 05:05:42;;;;;;;8.00;5.32;;;4.00;63.60;;;;;;3576572;40;20494;-69
2021/04/09 05:08:08;;;;;;;13.50;5.13;;;4.00;63.60;;;;;;3577045;40;21221;-69
2021/04/09 05:10:33;;;;;;;8.50;4.60;;;4.00;63.60;;;;;;3576530;40;20032;-70
2021/04/09 05:12:59;;;;;;;6.93;4.28;;;4.10;63.30;;;;;;3576865;40;20029;-70
2021/04/09 05:15:25;;;;;;;11.38;4.63;;;4.20;63.10;;;;;;3578492;40;20063;-70
2021/04/09 05:17:51;;;;;;;8.00;4.55;;;4.30;63.20;;;;;;3571137;40;20033;-71
2021/04/09 05:20:17;;;;;;;8.98;4.30;;;4.40;62.90;;;;;;3575619;40;21059;-70
2021/04/09 05:22:42;;;;;;;12.23;4.88;;;4.50;62.20;;;;;;3576882;40;20021;-70
2021/04/09 05:25:09;;;;;;;10.27;4.82;;;4.60;62.20;;;;;;3574769;40;20140;-71
2021/04/09 05:27:35;;;;;;;9.93;5.07;;;4.60;62.20;;;;;;3576089;40;20670;-71
2021/04/09 05:30:01;;;;;;;6.72;4.65;;;4.70;61.70;;;;;;3575231;40;20069;-71
2021/04/09 05:32:27;;;;;;;8.13;4.80;;;4.80;61.70;;;;;;3573664;40;20052;-69
2021/04/09 05:34:52;;;;;;;10.82;5.32;;;4.90;61.40;;;;;;3574381;40;20040;-70
2021/04/09 05:37:18;;;;;;;11.75;5.38;;;5.00;61.20;;;;;;3572756;40;20070;-68
2021/04/09 05:39:44;;;;;;;9.88;4.70;;;5.20;61.70;;;;;;3574103;40;20151;-69
2021/04/09 05:42:10;;;;;;;8.27;4.70;;;5.30;60.00;;;;;;3576648;40;20678;-69
2021/04/09 05:44:36;;;;;;;10.05;4.80;;;5.40;59.50;;;;;;3574926;40;20055;-69
2021/04/09 05:47:08;;;;;;;11.77;5.10;;;5.50;59.60;;;;;;3574682;40;20516;-69
2021/04/09 05:49:34;;;;;;;10.35;5.18;;;5.60;59.40;;;;;;3573330;40;20024;-70
2021/04/09 05:52:02;;;;;;;7.93;4.57;;;5.80;58.70;;;;;;3574045;40;20032;-71
2021/04/09 05:54:28;;;;;;;10.18;4.88;;;6.00;58.20;;;;;;3576569;40;20033;-71
2021/04/09 05:56:53;;;;;;;8.60;4.78;;;6.10;57.50;;;;;;3574019;40;20067;-71
2021/04/09 05:59:19;;;;;;;9.20;4.80;;;6.20;57.50;;;;;;3574271;40;20065;-68
2021/04/09 06:01:45;;;;;;;7.30;5.05;;;6.50;56.80;;;;;;3575870;40;20025;-69
2021/04/09 06:04:10;;;;;;;10.52;4.80;;;6.70;55.90;;;;;;3576532;40;20035;-69
2021/04/09 06:06:36;;;;;;;6.97;4.25;;;7.00;55.60;;;;;;3574759;40;20029;-68
2021/04/09 06:09:03;;;;;;;10.20;4.40;;;7.50;54.50;;;;;;3576670;40;20028;-69
2021/04/09 06:11:30;;;;;;;10.90;5.43;;;7.80;52.90;;;;;;3575138;40;20070;-70
2021/04/09 06:13:57;;;;;;;10.52;4.82;;;7.80;52.60;;;;;;3573170;40;20120;-69
2021/04/09 06:16:23;;;;;;;7.57;4.50;;;7.50;52.80;;;;;;3574988;40;20045;-70
2021/04/09 06:18:49;;;;;;;8.32;4.75;;;7.20;53.90;;;;;;3574227;40;20033;-69
2021/04/09 06:23:01;;;;;;;8.18;4.70;;;7.30;53.90;;;;;;3592620;39;20447;-68
2021/04/09 06:25:27;;;;;;;10.63;4.00;;;7.50;53.10;;;;;;3593838;39;20046;-69
2021/04/09 06:27:53;;;;;;;11.15;4.90;;;7.90;53.60;;;;;;3590460;39;20658;-68
2021/04/09 06:30:19;;;;;;;8.02;4.10;;;8.20;51.70;;;;;;3593277;39;20063;-68
2021/04/09 06:32:45;;;;;;;8.77;3.80;;;8.30;51.70;;;;;;3593784;39;20628;-69
2021/04/09 06:35:11;;;;;;;5.45;4.28;;;8.20;51.40;;;;;;3590220;39;20039;-68
2021/04/09 06:37:37;;;;;;;8.80;4.60;;;8.10;51.90;;;;;;3589635;39;20088;-67
2021/04/09 06:40:05;;;;;;;9.95;4.65;;;8.30;50.70;;;;;;3590903;39;20025;-67
2021/04/09 06:42:30;;;;;;;8.13;4.88;;;8.30;51.60;;;;;;3593489;39;20051;-66
2021/04/09 06:44:58;;;;;;;6.75;4.53;;;8.10;51.90;;;;;;3592027;39;20036;-68
2021/04/09 06:47:23;;;;;;;10.10;4.68;;;7.80;52.80;;;;;;3593204;39;20056;-68
2021/04/09 06:49:50;;;;;;;11.40;4.80;;;7.50;52.90;;;;;;3592428;39;20030;-67
2021/04/09 06:52:16;;;;;;;8.98;4.72;;;7.40;53.70;;;;;;3591444;39;20044;-67
2021/04/09 06:54:43;;;;;;;9.80;4.32;;;7.80;53.60;;;;;;3592275;39;20096;-68
2021/04/09 06:57:13;;;;;;;8.27;3.88;;;8.10;52.10;;;;;;3592091;39;20036;-67
2021/04/09 06:59:44;;;;;;;6.20;4.15;;;8.10;51.30;;;;;;3590112;39;20499;-67
2021/04/09 07:02:17;;;;;;;11.50;6.05;;;8.40;52.30;;;;;;3593866;39;20032;-67
2021/04/09 07:04:44;;;;;;;11.05;6.18;;;8.60;52.10;;;;;;3589090;39;20061;-68
2021/04/09 07:07:16;;;;;;;6.82;4.32;;;8.70;51.40;;;;;;3588555;39;20032;-66
2021/04/09 07:09:42;;;;;;;9.18;4.88;;;8.80;50.00;;;;;;3591402;39;20020;-68
2021/04/09 07:12:21;;;;;;;10.23;4.35;;;8.70;50.60;;;;;;3592146;39;20132;-67
2021/04/09 07:14:58;;;;;;;10.52;4.15;;;8.50;51.00;;;;;;3588716;39;20721;-68
2021/04/09 07:17:25;;;;;;;8.68;4.15;;;8.40;50.90;;;;;;3590109;39;20064;-68
2021/04/09 07:19:51;;;;;;;9.40;4.63;;;8.30;51.10;;;;;;3592806;39;20036;-67
2021/04/09 07:22:28;;;;;;;7.82;4.43;;;8.30;51.60;;;;;;3594528;39;20049;-67
2021/04/09 07:25:05;;;;;;;8.63;4.70;;;8.60;52.00;;;;;;3594886;39;20050;-67
2021/04/09 07:27:31;;;;;;;8.13;4.30;;;8.90;50.50;;;;;;3590741;39;20043;-67
2021/04/09 07:29:57;;;;;;;8.23;4.15;;;9.00;50.20;;;;;;3594013;39;20028;-68
2021/04/09 07:32:25;;;;;;;12.30;5.20;;;8.90;50.40;;;;;;3590093;39;20033;-68
2021/04/09 07:34:59;;;;;;;11.55;4.68;;;9.10;49.80;;;;;;3587437;39;20020;-68
2021/04/09 07:37:26;;;;;;;8.82;4.50;;;9.30;49.70;;;;;;3586294;39;20028;-67
2021/04/09 07:40:13;;;;;;;11.68;4.72;;;9.40;49.30;;;;;;3586008;39;20035;-68
2021/04/09 07:42:38;;;;;;;;;;;9.70;49.00;;;;;;3585650;40;20040;-67
2021/04/09 07:45:09;;;;;;;9.03;4.93;;;10.00;48.50;;;;;;3587043;40;19935;-68
2021/04/09 07:47:35;;;;;;;11.23;7.95;;;10.40;47.80;;;;;;3586126;39;20302;-67
2021/04/09 07:50:07;;;;;;;14.20;9.70;;;10.80;47.20;;;;;;3584883;39;20211;-68
2021/04/09 07:52:43;;;;;;;15.60;9.50;;;11.00;46.80;;;;;;3585497;40;20062;-67
2021/04/09 07:55:18;;;;;;;17.98;6.88;;;11.40;46.00;;;;;;3583968;39;20047;-68
2021/04/09 07:57:44;;;;;;;12.55;4.75;;;11.90;43.90;;;;;;3586307;40;20036;-67
2021/04/09 08:00:22;;;;;;;13.38;7.03;;;12.10;43.80;;;;;;3586583;39;20036;-68
2021/04/09 08:02:50;;;;;;;16.88;7.45;;;11.80;43.50;;;;;;3585127;40;20294;-68
2021/04/09 08:05:17;;;;;;;20.17;7.85;;;11.80;44.30;;;;;;3585610;39;20717;-67
2021/04/09 08:07:43;;;;;;;21.52;8.50;;;11.40;44.60;;;;;;3585110;39;20037;-68
2021/04/09 08:10:16;;;;;;;11.57;6.00;;;11.20;45.90;;;;;;3582627;39;20800;-68
2021/04/09 08:12:43;;;;;;;12.00;5.38;;;11.30;46.10;;;;;;3584813;40;20048;-68
2021/04/09 08:15:21;;;;;;;8.52;5.85;;;11.60;45.30;;;;;;3586289;40;20465;-66
2021/04/09 08:18:05;;;;;;;10.05;4.63;;;12.00;43.90;;;;;;3585373;40;20055;-66
2021/04/09 08:20:38;;;;;;;6.88;4.45;;;12.50;43.10;;;;;;3588275;39;20326;-68
2021/04/09 08:23:06;;;;;;;13.02;5.78;;;12.70;42.60;;;;;;3587492;40;20044;-65
2021/04/09 08:25:33;;;;;;;10.98;5.07;;;13.10;42.80;;;;;;3584161;40;20109;-68
2021/04/09 08:28:00;;;;;;;9.70;5.40;;;13.50;41.70;;;;;;3582793;39;20760;-68
2021/04/09 08:30:27;;;;;;;11.57;4.30;;;13.40;41.30;;;;;;3585838;40;20040;-67
2021/04/09 08:32:54;;;;;;;7.15;4.45;;;13.70;41.10;;;;;;3584378;39;20032;-67
2021/04/09 08:35:21;;;;;;;7.15;3.80;;;13.80;40.60;;;;;;3584628;39;20035;-68
2021/04/09 08:37:48;;;;;;;9.13;4.35;;;13.60;41.90;;;;;;3584220;39;20032;-69
2021/04/09 08:40:16;;;;;;;9.05;4.22;;;13.40;41.50;;;;;;3584472;40;20081;-69
2021/04/09 08:42:42;;;;;;;11.35;5.88;;;13.30;42.70;;;;;;3586975;40;20027;-68
2021/04/09 08:45:09;;;;;;;11.55;5.88;;;13.40;42.60;;;;;;3585303;40;20415;-69
2021/04/09 08:47:35;;;;;;;8.68;4.70;;;13.50;41.70;;;;;;3585160;40;20405;-70
2021/04/09 08:50:06;;;;;;;9.18;4.40;;;13.60;40.90;;;;;;3585863;39;20051;-67
2021/04/09 08:52:39;;;;;;;11.73;4.45;;;13.50;40.30;;;;;;3583252;40;20028;-67
2021/04/09 08:55:05;;;;;;;9.20;4.88;;;13.60;40.80;;;;;;3581487;40;20031;-69
2021/04/09 08:57:33;;;;;;;14.90;4.95;;;14.10;41.20;;;;;;3586032;39;20105;-68
2021/04/09 09:00:10;;;;;;;10.27;4.65;;;14.50;39.30;;;;;;3581396;40;20021;-68
2021/04/09 09:02:54;;;;;;;11.88;6.10;;;14.60;38.20;;;;;;3583366;39;20133;-69
2021/04/09 09:05:27;;;;;;;9.98;4.95;;;14.50;40.20;;;;;;3584248;40;20028;-67
2021/04/09 09:08:05;;;;;;;7.82;4.78;;;14.60;38.70;;;;;;3583943;39;20121;-67
2021/04/09 09:10:30;;;;;;;10.45;6.00;;;14.20;39.00;;;;;;3582219;39;20047;-67
2021/04/09 09:13:06;;;;;;;12.98;6.70;;;14.20;40.60;;;;;;3584370;39;20761;-67
2021/04/09 09:15:44;;;;;;;8.48;4.75;;;14.50;40.80;;;;;;3585087;39;20385;-67
2021/04/09 09:18:24;;;;;;;10.75;5.40;;;14.70;38.60;;;;;;3586710;39;20049;-67
2021/04/09 09:21:07;;;;;;;9.77;4.57;;;14.40;39.80;;;;;;3587081;40;20032;-67
2021/04/09 09:23:45;;;;;;;8.23;4.57;;;14.40;40.30;;;;;;3582903;40;20083;-67
2021/04/09 09:26:32;;;;;;;9.73;4.75;;;14.80;38.80;;;;;;3584959;39;20403;-67
2021/04/09 09:29:24;;;;;;;11.13;6.72;;;14.90;39.00;;;;;;3581862;40;20452;-66
2021/04/09 09:32:04;;;;;;;10.45;5.53;;;15.00;38.60;;;;;;3585931;40;20116;-66
2021/04/09 09:34:35;;;;;;;9.75;7.43;;;15.00;39.20;;;;;;3580898;40;20405;-67
2021/04/09 09:37:27;;;;;;;6.97;4.90;;;15.00;38.90;;;;;;3583481;40;20082;-67
2021/04/09 09:39:52;;;;;;;11.70;10.02;;;15.10;38.80;;;;;;3586317;39;20036;-67
2021/04/09 09:42:25;;;;;;;16.42;14.80;;;15.20;39.10;;;;;;3586605;39;20085;-66
2021/04/09 09:44:59;;;;;;;29.83;26.70;;;15.10;39.40;;;;;;3582507;40;20040;-67
2021/04/09 09:47:32;;;;;;;12.80;5.40;;;15.20;40.70;;;;;;3582503;40;20467;-67
2021/04/09 09:50:04;;;;;;;9.63;8.02;;;15.20;39.00;;;;;;3585441;39;20704;-68
2021/04/09 09:53:03;;;;;;;10.50;8.18;;;15.40;38.60;;;;;;3583182;40;20068;-68
2021/04/09 09:55:41;;;;;;;9.98;6.57;;;16.00;38.10;;;;;;3584238;40;20037;-64
2021/04/09 09:58:19;;;;;;;8.68;4.93;;;16.50;37.50;;;;;;3583829;40;20815;-63
2021/04/09 10:00:45;;;;;;;8.40;4.78;;;16.80;36.70;;;;;;3584373;40;20174;-63
2021/04/09 10:03:30;;;;;;;8.18;4.95;;;16.50;37.10;;;;;;3584685;39;20730;-62
2021/04/09 10:06:13;;;;;;;12.82;5.03;;;16.40;37.40;;;;;;3585966;40;20082;-62
2021/04/09 10:08:41;;;;;;;10.27;6.95;;;16.70;36.80;;;;;;3584606;40;20347;-62
2021/04/09 10:11:15;;;;;;;12.95;5.82;;;16.70;36.50;;;;;;3586239;40;20313;-62
2021/04/09 10:13:43;;;;;;;10.93;5.85;;;16.40;36.80;;;;;;3579144;40;20084;-62
2021/04/09 10:16:20;;;;;;;10.02;5.35;;;16.00;37.40;;;;;;3587519;40;20036;-65
2021/04/09 10:18:53;;;;;;;8.65;5.70;;;15.80;38.80;;;;;;3584487;40;20426;-64
2021/04/09 10:21:33;;;;;;;6.85;4.93;;;15.80;39.30;;;;;;3585900;40;20036;-66
2021/04/09 10:24:16;;;;;;;11.95;6.35;;;15.80;38.40;;;;;;3582635;40;20282;-65
2021/04/09 10:26:51;;;;;;;5.93;4.55;;;15.60;39.90;;;;;;3583833;40;20048;-63
2021/04/09 10:29:19;;;;;;;8.57;5.13;;;15.60;39.50;;;;;;3582715;40;20377;-65
2021/04/09 10:31:44;;;;;;;9.27;5.20;;;15.60;39.50;;;;;;3582722;40;20029;-64
2021/04/09 10:34:10;;;;;;;15.45;5.70;;;15.50;40.50;;;;;;3584397;40;20117;-64
2021/04/09 10:36:36;;;;;;;9.18;5.38;;;15.40;40.60;;;;;;3586095;40;20040;-65
2021/04/09 10:39:11;;;;;;;9.98;5.63;;;15.40;40.30;;;;;;3583931;39;20411;-65
2021/04/09 10:41:42;;;;;;;10.70;6.18;;;15.30;40.50;;;;;;3576425;39;20316;-65
2021/04/09 10:44:18;;;;;;;13.23;6.78;;;15.10;40.00;;;;;;3585243;40;20047;-64
2021/04/09 10:46:55;;;;;;;10.43;5.93;;;14.90;41.10;;;;;;3584528;40;20771;-64
2021/04/09 10:49:23;;;;;;;9.88;6.15;;;14.50;41.30;;;;;;3581836;40;20040;-65
2021/04/09 10:51:51;;;;;;;14.68;6.97;;;14.50;41.10;;;;;;3583299;39;20031;-65
2021/04/09 10:54:30;;;;;;;10.77;5.95;;;14.50;41.70;;;;;;3583403;39;20036;-65
2021/04/09 10:57:20;;;;;;;10.52;5.32;;;14.60;41.60;;;;;;3583292;40;20025;-64
2021/04/09 10:59:50;;;;;;;12.07;6.28;;;14.70;42.00;;;;;;3582998;40;20032;-64
2021/04/09 11:02:24;;;;;;;8.60;5.78;;;14.80;41.60;;;;;;3585235;39;20034;-64
2021/04/09 11:04:51;;;;;;;12.13;6.75;;;14.80;40.90;;;;;;3582185;39;20033;-64
2021/04/09 11:07:17;;;;;;;7.85;5.35;;;14.60;41.50;;;;;;3585501;39;20025;-65
2021/04/09 11:09:47;;;;;;;11.35;5.20;;;14.50;41.70;;;;;;3584261;40;20036;-65
2021/04/09 11:12:26;;;;;;;9.02;5.32;;;14.50;41.70;;;;;;3585004;40;20436;-65
2021/04/09 11:15:03;;;;;;;12.07;6.47;;;14.40;41.60;;;;;;3583836;39;20029;-64
2021/04/09 11:17:28;;;;;;;6.78;4.82;;;14.40;42.30;;;;;;3586652;40;20058;-65
2021/04/09 11:19:57;;;;;;;11.43;4.38;;;14.50;42.50;;;;;;3586038;39;20043;-65
2021/04/09 11:22:24;;;;;;;7.15;4.80;;;14.50;41.90;;;;;;3583164;39;20082;-65
2021/04/09 11:25:02;;;;;;;14.75;4.93;;;14.50;43.10;;;;;;3584244;39;20393;-64
2021/04/09 11:27:34;;;;;;;12.18;6.57;;;14.60;41.50;;;;;;3583682;40;20781;-65
2021/04/09 11:30:18;;;;;;;7.03;4.63;;;14.60;42.30;;;;;;3586590;39;20032;-63
2021/04/09 11:32:49;;;;;;;10.38;6.03;;;14.60;41.80;;;;;;3584883;40;20040;-64
2021/04/09 11:35:15;;;;;;;12.00;4.75;;;14.50;43.10;;;;;;3583001;40;20133;-64
2021/04/09 11:37:52;;;;;;;8.60;4.80;;;14.60;43.10;;;;;;3584925;40;20072;-64
2021/04/09 11:40:43;;;;;;;10.82;4.75;;;14.50;42.40;;;;;;3583660;40;20025;-64
2021/04/09 11:43:13;;;;;;;8.13;4.65;;;14.60;42.60;;;;;;3585654;40;20160;-64
2021/04/09 11:45:47;;;;;;;8.18;4.07;;;14.90;43.40;;;;;;3587931;40;20049;-64
2021/04/09 11:48:23;;;;;;;9.40;4.63;;;15.20;41.80;;;;;;3582141;40;20047;-64
2021/04/09 11:50:49;;;;;;;8.93;4.30;;;15.30;41.90;;;;;;3582178;40;20100;-64
2021/04/09 11:53:15;;;;;;;10.60;4.85;;;15.30;40.80;;;;;;3586368;39;20712;-64
2021/04/09 11:55:41;;;;;;;8.35;5.25;;;15.10;40.50;;;;;;3586271;39;20029;-64
2021/04/09 11:58:27;;;;;;;11.88;5.38;;;15.20;41.50;;;;;;3589048;39;20040;-64
2021/04/09 12:00:54;;;;;;;10.07;5.05;;;15.20;40.00;;;;;;3583156;40;20118;-64
2021/04/09 12:03:19;;;;;;;12.93;5.18;;;15.40;41.20;;;;;;3583366;40;20757;-64
2021/04/09 12:05:45;;;;;;;10.48;5.57;;;15.40;41.00;;;;;;3583354;40;20103;-64
2021/04/09 12:08:11;;;;;;;14.73;5.15;;;15.30;40.40;;;;;;3587222;40;20040;-64
2021/04/09 12:10:37;;;;;;;8.73;5.10;;;15.30;40.50;;;;;;3585330;39;20690;-64
2021/04/09 12:13:03;;;;;;;12.95;5.55;;;15.20;41.30;;;;;;3585734;40;20036;-64
2021/04/09 12:15:29;;;;;;;7.43;4.90;;;15.30;41.00;;;;;;3586401;39;20094;-63
2021/04/09 12:17:56;;;;;;;9.80;5.65;;;15.30;42.30;;;;;;3585660;39;20056;-63
2021/04/09 12:20:26;;;;;;;7.90;5.15;;;15.40;40.40;;;;;;3583723;39;20447;-64
2021/04/09 12:22:55;;;;;;;8.85;5.57;;;15.40;40.00;;;;;;3583987;40;20668;-63
2021/04/09 12:25:22;;;;;;;8.38;5.35;;;15.40;40.50;;;;;;3581842;40;20505;-64
2021/04/09 12:27:48;;;;;;;11.02;5.10;;;15.30;40.20;;;;;;3584957;39;20323;-64
2021/04/09 12:30:16;;;;;;;7.82;5.00;;;15.10;40.90;;;;;;3585753;40;20036;-62
2021/04/09 12:32:42;;;;;;;7.95;5.22;;;15.10;40.90;;;;;;3587358;40;20172;-63
2021/04/09 12:35:09;;;;;;;10.07;4.95;;;15.10;40.80;;;;;;3583129;40;20036;-64
2021/04/09 12:37:35;;;;;;;11.32;5.50;;;14.80;40.30;;;;;;3583937;39;20028;-62
2021/04/09 12:40:01;;;;;;;8.02;5.35;;;14.60;40.10;;;;;;3586261;39;20644;-63
2021/04/09 12:42:27;;;;;;;9.45;5.93;;;14.40;41.40;;;;;;3583636;40;20064;-63
2021/04/09 12:44:53;;;;;;;10.60;5.85;;;14.40;41.80;;;;;;3584022;39;20032;-64
2021/04/09 12:47:20;;;;;;;11.25;5.10;;;14.60;43.20;;;;;;3587359;39;20483;-64
2021/04/09 12:49:47;;;;;;;8.27;5.75;;;14.80;41.50;;;;;;3584713;39;20048;-64
2021/04/09 12:52:13;;;;;;;11.32;5.65;;;15.00;41.60;;;;;;3584624;39;20024;-64
2021/04/09 12:54:39;;;;;;;9.75;5.75;;;15.10;41.60;;;;;;3585072;39;20026;-63
2021/04/09 12:57:06;;;;;;;8.63;5.50;;;15.10;41.10;;;;;;3584256;39;20114;-64
2021/04/09 12:59:32;;;;;;;8.00;5.40;;;15.00;40.40;;;;;;3586916;39;20562;-63
2021/04/09 13:01:58;;;;;;;9.18;5.40;;;14.80;41.30;;;;;;3585580;39;20028;-64
2021/04/09 13:04:23;;;;;;;9.52;5.32;;;14.70;42.20;;;;;;3584687;39;20038;-65